sensor_id;sensor_type;location;lat;lon;timestamp;P1;durP1;ratioP1;P2;durP2;ratioP2
14516;SDS011;7344;50.864;4.362;2024-02-16T00:00:07;3.23;;;2.50;;
14516;SDS011;7344;50.864;4.362;2024-02-16T00:02:33;3.37;;;2.77;;
14516;SDS011;7344;50.864;4.362;2024-02-16T00:04:59;3.07;;;2.83;;
14516;SDS011;7344;50.864;4.362;2024-02-16T00:07:24;4.13;;;2.90;;
14516;SDS011;7344;50.864;4.362;2024-02-16T00:09:50;5.70;;;3.10;;
14516;SDS011;7344;50.864;4.362;2024-02-16T00:12:15;3.17;;;2.87;;
14516;SDS011;7344;50.864;4.362;2024-02-16T00:14:41;4.87;;;2.90;;
14516;SDS011;7344;50.864;4.362;2024-02-16T00:17:07;3.17;;;2.97;;
14516;SDS011;7344;50.864;4.362;2024-02-16T00:19:35;4.13;;;2.53;;
14516;SDS011;7344;50.864;4.362;2024-02-16T00:22:00;3.40;;;3.07;;
14516;SDS011;7344;50.864;4.362;2024-02-16T00:24:26;2.40;;;2.20;;
14516;SDS011;7344;50.864;4.362;2024-02-16T00:26:52;3.53;;;2.67;;
14516;SDS011;7344;50.864;4.362;2024-02-16T00:29:17;4.50;;;2.60;;
14516;SDS011;7344;50.864;4.362;2024-02-16T00:31:44;2.90;;;2.70;;
14516;SDS011;7344;50.864;4.362;2024-02-16T00:34:09;3.13;;;2.60;;
14516;SDS011;7344;50.864;4.362;2024-02-16T00:36:35;3.87;;;2.80;;
14516;SDS011;7344;50.864;4.362;2024-02-16T00:39:01;3.00;;;2.80;;
14516;SDS011;7344;50.864;4.362;2024-02-16T00:41:28;3.80;;;2.70;;
14516;SDS011;7344;50.864;4.362;2024-02-16T00:43:54;3.13;;;2.40;;
14516;SDS011;7344;50.864;4.362;2024-02-16T00:46:21;3.00;;;2.40;;
14516;SDS011;7344;50.864;4.362;2024-02-16T00:48:48;2.50;;;2.30;;
14516;SDS011;7344;50.864;4.362;2024-02-16T00:51:19;3.13;;;2.60;;
14516;SDS011;7344;50.864;4.362;2024-02-16T00:53:45;3.13;;;2.80;;
14516;SDS011;7344;50.864;4.362;2024-02-16T00:56:11;4.60;;;2.57;;
14516;SDS011;7344;50.864;4.362;2024-02-16T00:58:39;2.67;;;2.47;;
14516;SDS011;7344;50.864;4.362;2024-02-16T01:01:07;2.97;;;2.60;;
14516;SDS011;7344;50.864;4.362;2024-02-16T01:03:35;3.17;;;2.50;;
14516;SDS011;7344;50.864;4.362;2024-02-16T01:06:02;2.90;;;2.60;;
14516;SDS011;7344;50.864;4.362;2024-02-16T01:08:28;3.07;;;2.77;;
14516;SDS011;7344;50.864;4.362;2024-02-16T01:10:54;2.93;;;2.60;;
14516;SDS011;7344;50.864;4.362;2024-02-16T01:13:20;4.50;;;2.93;;
14516;SDS011;7344;50.864;4.362;2024-02-16T01:15:46;2.73;;;2.50;;
14516;SDS011;7344;50.864;4.362;2024-02-16T01:18:11;3.10;;;2.80;;
14516;SDS011;7344;50.864;4.362;2024-02-16T01:20:37;3.30;;;2.93;;
14516;SDS011;7344;50.864;4.362;2024-02-16T01:23:02;3.10;;;2.60;;
14516;SDS011;7344;50.864;4.362;2024-02-16T01:25:30;3.60;;;2.80;;
14516;SDS011;7344;50.864;4.362;2024-02-16T01:27:56;3.67;;;2.73;;
14516;SDS011;7344;50.864;4.362;2024-02-16T01:30:21;2.90;;;2.70;;
14516;SDS011;7344;50.864;4.362;2024-02-16T01:32:47;4.87;;;3.20;;
14516;SDS011;7344;50.864;4.362;2024-02-16T01:35:13;2.90;;;2.70;;
14516;SDS011;7344;50.864;4.362;2024-02-16T01:37:41;3.50;;;2.83;;
14516;SDS011;7344;50.864;4.362;2024-02-16T01:40:08;3.33;;;2.67;;
14516;SDS011;7344;50.864;4.362;2024-02-16T01:42:39;3.80;;;2.80;;
14516;SDS011;7344;50.864;4.362;2024-02-16T01:45:06;2.87;;;2.67;;
14516;SDS011;7344;50.864;4.362;2024-02-16T01:47:32;4.77;;;3.10;;
14516;SDS011;7344;50.864;4.362;2024-02-16T01:49:57;3.17;;;2.80;;
14516;SDS011;7344;50.864;4.362;2024-02-16T01:52:23;3.30;;;3.00;;
14516;SDS011;7344;50.864;4.362;2024-02-16T01:54:49;4.90;;;2.90;;
14516;SDS011;7344;50.864;4.362;2024-02-16T01:57:15;2.93;;;2.73;;
14516;SDS011;7344;50.864;4.362;2024-02-16T01:59:40;4.87;;;3.30;;
14516;SDS011;7344;50.864;4.362;2024-02-16T02:02:06;4.17;;;3.03;;
14516;SDS011;7344;50.864;4.362;2024-02-16T02:04:32;3.77;;;3.10;;
14516;SDS011;7344;50.864;4.362;2024-02-16T02:06:58;3.50;;;3.20;;
14516;SDS011;7344;50.864;4.362;2024-02-16T02:09:23;3.03;;;2.70;;
14516;SDS011;7344;50.864;4.362;2024-02-16T02:11:49;3.83;;;3.37;;
14516;SDS011;7344;50.864;4.362;2024-02-16T02:14:15;2.93;;;2.63;;
14516;SDS011;7344;50.864;4.362;2024-02-16T02:16:40;3.30;;;2.70;;
14516;SDS011;7344;50.864;4.362;2024-02-16T02:19:06;3.47;;;2.90;;
14516;SDS011;7344;50.864;4.362;2024-02-16T02:21:31;3.10;;;2.80;;
14516;SDS011;7344;50.864;4.362;2024-02-16T02:23:57;3.43;;;3.13;;
14516;SDS011;7344;50.864;4.362;2024-02-16T02:26:22;3.20;;;2.90;;
14516;SDS011;7344;50.864;4.362;2024-02-16T02:28:48;3.20;;;2.90;;
14516;SDS011;7344;50.864;4.362;2024-02-16T02:31:15;3.10;;;2.80;;
14516;SDS011;7344;50.864;4.362;2024-02-16T02:33:40;2.67;;;2.57;;
14516;SDS011;7344;50.864;4.362;2024-02-16T02:36:06;5.20;;;3.13;;
14516;SDS011;7344;50.864;4.362;2024-02-16T02:38:32;3.50;;;3.00;;
14516;SDS011;7344;50.864;4.362;2024-02-16T02:40:58;3.20;;;2.80;;
14516;SDS011;7344;50.864;4.362;2024-02-16T02:43:23;5.43;;;3.10;;
14516;SDS011;7344;50.864;4.362;2024-02-16T02:45:49;5.77;;;3.23;;
14516;SDS011;7344;50.864;4.362;2024-02-16T02:48:15;6.13;;;3.37;;
14516;SDS011;7344;50.864;4.362;2024-02-16T02:50:41;6.33;;;2.97;;
14516;SDS011;7344;50.864;4.362;2024-02-16T02:53:06;2.97;;;2.77;;
14516;SDS011;7344;50.864;4.362;2024-02-16T02:55:32;4.03;;;3.17;;
14516;SDS011;7344;50.864;4.362;2024-02-16T02:57:57;6.93;;;3.20;;
14516;SDS011;7344;50.864;4.362;2024-02-16T03:00:23;7.67;;;3.57;;
14516;SDS011;7344;50.864;4.362;2024-02-16T03:02:48;3.43;;;3.13;;
14516;SDS011;7344;50.864;4.362;2024-02-16T03:05:14;5.23;;;3.00;;
14516;SDS011;7344;50.864;4.362;2024-02-16T03:07:40;4.93;;;3.10;;
14516;SDS011;7344;50.864;4.362;2024-02-16T03:10:06;3.10;;;2.80;;
14516;SDS011;7344;50.864;4.362;2024-02-16T03:12:34;5.63;;;2.80;;
14516;SDS011;7344;50.864;4.362;2024-02-16T03:14:59;3.97;;;2.73;;
14516;SDS011;7344;50.864;4.362;2024-02-16T03:17:26;5.43;;;3.70;;
14516;SDS011;7344;50.864;4.362;2024-02-16T03:19:51;6.70;;;3.30;;
14516;SDS011;7344;50.864;4.362;2024-02-16T03:22:17;4.00;;;3.07;;
14516;SDS011;7344;50.864;4.362;2024-02-16T03:24:43;3.37;;;3.00;;
14516;SDS011;7344;50.864;4.362;2024-02-16T03:27:10;3.90;;;2.90;;
14516;SDS011;7344;50.864;4.362;2024-02-16T03:29:36;3.47;;;3.00;;
14516;SDS011;7344;50.864;4.362;2024-02-16T03:32:01;4.47;;;3.00;;
14516;SDS011;7344;50.864;4.362;2024-02-16T03:34:27;3.37;;;3.00;;
14516;SDS011;7344;50.864;4.362;2024-02-16T03:36:52;3.37;;;3.07;;
14516;SDS011;7344;50.864;4.362;2024-02-16T03:39:19;6.13;;;3.20;;
14516;SDS011;7344;50.864;4.362;2024-02-16T03:41:45;3.50;;;2.80;;
14516;SDS011;7344;50.864;4.362;2024-02-16T03:44:14;5.50;;;3.20;;
14516;SDS011;7344;50.864;4.362;2024-02-16T03:46:43;3.70;;;2.90;;
14516;SDS011;7344;50.864;4.362;2024-02-16T03:49:09;4.13;;;3.20;;
14516;SDS011;7344;50.864;4.362;2024-02-16T03:51:35;3.33;;;3.03;;
14516;SDS011;7344;50.864;4.362;2024-02-16T03:54:01;3.60;;;3.30;;
14516;SDS011;7344;50.864;4.362;2024-02-16T03:56:29;5.77;;;3.10;;
14516;SDS011;7344;50.864;4.362;2024-02-16T03:58:54;3.50;;;3.10;;
14516;SDS011;7344;50.864;4.362;2024-02-16T04:01:20;3.40;;;2.83;;
14516;SDS011;7344;50.864;4.362;2024-02-16T04:03:47;3.73;;;3.13;;
14516;SDS011;7344;50.864;4.362;2024-02-16T04:06:12;4.77;;;3.17;;
14516;SDS011;7344;50.864;4.362;2024-02-16T04:08:38;3.53;;;3.00;;
14516;SDS011;7344;50.864;4.362;2024-02-16T04:11:04;3.87;;;3.00;;
14516;SDS011;7344;50.864;4.362;2024-02-16T04:13:30;3.47;;;3.17;;
14516;SDS011;7344;50.864;4.362;2024-02-16T04:15:57;3.20;;;2.90;;
14516;SDS011;7344;50.864;4.362;2024-02-16T04:18:23;3.83;;;3.40;;
14516;SDS011;7344;50.864;4.362;2024-02-16T04:20:48;3.37;;;2.83;;
14516;SDS011;7344;50.864;4.362;2024-02-16T04:23:14;6.07;;;3.07;;
14516;SDS011;7344;50.864;4.362;2024-02-16T04:25:39;3.83;;;3.20;;
14516;SDS011;7344;50.864;4.362;2024-02-16T04:28:05;5.07;;;3.30;;
14516;SDS011;7344;50.864;4.362;2024-02-16T04:30:30;3.67;;;3.20;;
14516;SDS011;7344;50.864;4.362;2024-02-16T04:32:56;4.03;;;3.13;;
14516;SDS011;7344;50.864;4.362;2024-02-16T04:35:22;3.50;;;3.20;;
14516;SDS011;7344;50.864;4.362;2024-02-16T04:37:47;5.40;;;3.33;;
14516;SDS011;7344;50.864;4.362;2024-02-16T04:40:13;3.50;;;3.20;;
14516;SDS011;7344;50.864;4.362;2024-02-16T04:42:39;4.17;;;3.30;;
14516;SDS011;7344;50.864;4.362;2024-02-16T04:45:07;7.70;;;3.40;;
14516;SDS011;7344;50.864;4.362;2024-02-16T04:47:36;4.63;;;3.27;;
14516;SDS011;7344;50.864;4.362;2024-02-16T04:50:01;6.20;;;3.10;;
14516;SDS011;7344;50.864;4.362;2024-02-16T04:52:28;6.47;;;3.53;;
14516;SDS011;7344;50.864;4.362;2024-02-16T04:54:53;3.97;;;3.57;;
14516;SDS011;7344;50.864;4.362;2024-02-16T04:57:19;5.43;;;3.30;;
14516;SDS011;7344;50.864;4.362;2024-02-16T04:59:45;5.53;;;3.00;;
14516;SDS011;7344;50.864;4.362;2024-02-16T05:02:11;4.00;;;3.17;;
14516;SDS011;7344;50.864;4.362;2024-02-16T05:04:36;5.47;;;3.33;;
14516;SDS011;7344;50.864;4.362;2024-02-16T05:07:02;4.77;;;3.03;;
14516;SDS011;7344;50.864;4.362;2024-02-16T05:09:31;6.80;;;3.50;;
14516;SDS011;7344;50.864;4.362;2024-02-16T05:11:57;4.43;;;3.47;;
14516;SDS011;7344;50.864;4.362;2024-02-16T05:14:23;6.50;;;3.73;;
14516;SDS011;7344;50.864;4.362;2024-02-16T05:16:49;4.80;;;3.37;;
14516;SDS011;7344;50.864;4.362;2024-02-16T05:19:16;6.33;;;3.70;;
14516;SDS011;7344;50.864;4.362;2024-02-16T05:21:41;4.00;;;3.70;;
14516;SDS011;7344;50.864;4.362;2024-02-16T05:24:07;6.73;;;3.50;;
14516;SDS011;7344;50.864;4.362;2024-02-16T05:26:32;4.70;;;3.40;;
14516;SDS011;7344;50.864;4.362;2024-02-16T05:28:59;5.97;;;3.70;;
14516;SDS011;7344;50.864;4.362;2024-02-16T05:31:24;5.30;;;3.50;;
14516;SDS011;7344;50.864;4.362;2024-02-16T05:33:50;5.63;;;3.53;;
14516;SDS011;7344;50.864;4.362;2024-02-16T05:36:19;7.50;;;3.53;;
14516;SDS011;7344;50.864;4.362;2024-02-16T05:38:48;5.03;;;3.40;;
14516;SDS011;7344;50.864;4.362;2024-02-16T05:41:15;4.63;;;3.70;;
14516;SDS011;7344;50.864;4.362;2024-02-16T05:43:42;4.07;;;3.70;;
14516;SDS011;7344;50.864;4.362;2024-02-16T05:46:12;6.40;;;3.70;;
14516;SDS011;7344;50.864;4.362;2024-02-16T05:48:39;6.47;;;4.27;;
14516;SDS011;7344;50.864;4.362;2024-02-16T05:51:05;7.70;;;4.17;;
14516;SDS011;7344;50.864;4.362;2024-02-16T05:53:32;4.97;;;3.70;;
14516;SDS011;7344;50.864;4.362;2024-02-16T05:55:58;5.37;;;3.53;;
14516;SDS011;7344;50.864;4.362;2024-02-16T05:58:24;7.60;;;4.30;;
14516;SDS011;7344;50.864;4.362;2024-02-16T06:00:49;6.07;;;3.97;;
14516;SDS011;7344;50.864;4.362;2024-02-16T06:03:15;5.60;;;3.90;;
14516;SDS011;7344;50.864;4.362;2024-02-16T06:05:41;6.40;;;3.80;;
14516;SDS011;7344;50.864;4.362;2024-02-16T06:08:09;6.67;;;4.00;;
14516;SDS011;7344;50.864;4.362;2024-02-16T06:10:35;6.10;;;4.10;;
14516;SDS011;7344;50.864;4.362;2024-02-16T06:13:01;7.67;;;4.10;;
14516;SDS011;7344;50.864;4.362;2024-02-16T06:15:26;12.10;;;4.00;;
14516;SDS011;7344;50.864;4.362;2024-02-16T06:17:52;5.73;;;4.27;;
14516;SDS011;7344;50.864;4.362;2024-02-16T06:20:18;6.20;;;4.43;;
14516;SDS011;7344;50.864;4.362;2024-02-16T06:22:43;7.40;;;4.70;;
14516;SDS011;7344;50.864;4.362;2024-02-16T06:25:09;9.30;;;4.37;;
14516;SDS011;7344;50.864;4.362;2024-02-16T06:27:35;8.07;;;4.40;;
14516;SDS011;7344;50.864;4.362;2024-02-16T06:30:02;7.33;;;4.37;;
14516;SDS011;7344;50.864;4.362;2024-02-16T06:32:29;6.90;;;4.50;;
14516;SDS011;7344;50.864;4.362;2024-02-16T06:34:56;8.67;;;4.57;;
14516;SDS011;7344;50.864;4.362;2024-02-16T06:37:22;10.00;;;4.90;;
14516;SDS011;7344;50.864;4.362;2024-02-16T06:39:47;8.10;;;4.87;;
14516;SDS011;7344;50.864;4.362;2024-02-16T06:42:13;7.80;;;4.87;;
14516;SDS011;7344;50.864;4.362;2024-02-16T06:44:39;10.17;;;5.13;;
14516;SDS011;7344;50.864;4.362;2024-02-16T06:47:05;11.63;;;5.40;;
14516;SDS011;7344;50.864;4.362;2024-02-16T06:49:31;8.83;;;5.03;;
14516;SDS011;7344;50.864;4.362;2024-02-16T06:51:56;9.33;;;5.37;;
14516;SDS011;7344;50.864;4.362;2024-02-16T06:54:22;12.17;;;5.47;;
14516;SDS011;7344;50.864;4.362;2024-02-16T06:56:49;7.67;;;5.03;;
14516;SDS011;7344;50.864;4.362;2024-02-16T06:59:16;6.70;;;5.57;;
14516;SDS011;7344;50.864;4.362;2024-02-16T07:01:42;8.37;;;6.00;;
14516;SDS011;7344;50.864;4.362;2024-02-16T07:04:08;11.43;;;4.97;;
14516;SDS011;7344;50.864;4.362;2024-02-16T07:06:34;7.30;;;4.97;;
14516;SDS011;7344;50.864;4.362;2024-02-16T07:09:00;12.70;;;5.83;;
14516;SDS011;7344;50.864;4.362;2024-02-16T07:11:26;9.43;;;5.20;;
14516;SDS011;7344;50.864;4.362;2024-02-16T07:13:51;10.90;;;5.60;;
14516;SDS011;7344;50.864;4.362;2024-02-16T07:16:17;9.33;;;5.30;;
14516;SDS011;7344;50.864;4.362;2024-02-16T07:18:43;10.37;;;5.47;;
14516;SDS011;7344;50.864;4.362;2024-02-16T07:21:09;7.77;;;5.90;;
14516;SDS011;7344;50.864;4.362;2024-02-16T07:23:36;11.03;;;5.47;;
14516;SDS011;7344;50.864;4.362;2024-02-16T07:26:02;9.23;;;5.57;;
14516;SDS011;7344;50.864;4.362;2024-02-16T07:28:28;9.87;;;5.77;;
14516;SDS011;7344;50.864;4.362;2024-02-16T07:30:53;7.87;;;5.50;;
14516;SDS011;7344;50.864;4.362;2024-02-16T07:33:20;9.30;;;5.90;;
14516;SDS011;7344;50.864;4.362;2024-02-16T07:35:46;14.07;;;6.07;;
14516;SDS011;7344;50.864;4.362;2024-02-16T07:38:12;10.40;;;5.70;;
14516;SDS011;7344;50.864;4.362;2024-02-16T07:40:37;10.63;;;5.87;;
14516;SDS011;7344;50.864;4.362;2024-02-16T07:43:03;9.00;;;5.80;;
14516;SDS011;7344;50.864;4.362;2024-02-16T07:45:30;11.00;;;6.23;;
14516;SDS011;7344;50.864;4.362;2024-02-16T07:47:56;11.73;;;5.97;;
14516;SDS011;7344;50.864;4.362;2024-02-16T07:50:22;10.93;;;6.60;;
14516;SDS011;7344;50.864;4.362;2024-02-16T07:52:49;10.47;;;6.20;;
14516;SDS011;7344;50.864;4.362;2024-02-16T07:55:16;12.40;;;6.30;;
14516;SDS011;7344;50.864;4.362;2024-02-16T07:57:45;11.90;;;6.50;;
14516;SDS011;7344;50.864;4.362;2024-02-16T08:00:12;8.13;;;5.93;;
14516;SDS011;7344;50.864;4.362;2024-02-16T08:02:38;14.30;;;6.73;;
14516;SDS011;7344;50.864;4.362;2024-02-16T08:05:08;13.50;;;7.00;;
14516;SDS011;7344;50.864;4.362;2024-02-16T08:07:35;13.37;;;6.87;;
14516;SDS011;7344;50.864;4.362;2024-02-16T08:10:01;14.63;;;7.30;;
14516;SDS011;7344;50.864;4.362;2024-02-16T08:12:27;11.90;;;7.47;;
14516;SDS011;7344;50.864;4.362;2024-02-16T08:14:53;12.43;;;6.93;;
14516;SDS011;7344;50.864;4.362;2024-02-16T08:17:18;9.13;;;6.63;;
14516;SDS011;7344;50.864;4.362;2024-02-16T08:19:50;11.30;;;7.10;;
14516;SDS011;7344;50.864;4.362;2024-02-16T08:22:18;12.10;;;6.80;;
14516;SDS011;7344;50.864;4.362;2024-02-16T08:24:43;12.53;;;7.43;;
14516;SDS011;7344;50.864;4.362;2024-02-16T08:27:11;12.70;;;7.70;;
14516;SDS011;7344;50.864;4.362;2024-02-16T08:29:37;13.97;;;7.30;;
14516;SDS011;7344;50.864;4.362;2024-02-16T08:32:03;13.13;;;7.10;;
14516;SDS011;7344;50.864;4.362;2024-02-16T08:34:30;10.73;;;6.43;;
14516;SDS011;7344;50.864;4.362;2024-02-16T08:36:56;13.90;;;7.30;;
14516;SDS011;7344;50.864;4.362;2024-02-16T08:39:22;12.77;;;7.07;;
14516;SDS011;7344;50.864;4.362;2024-02-16T08:41:50;11.10;;;7.40;;
14516;SDS011;7344;50.864;4.362;2024-02-16T08:44:16;11.37;;;6.63;;
14516;SDS011;7344;50.864;4.362;2024-02-16T08:46:43;10.33;;;6.77;;
14516;SDS011;7344;50.864;4.362;2024-02-16T08:49:11;10.63;;;6.67;;
14516;SDS011;7344;50.864;4.362;2024-02-16T08:51:37;10.40;;;6.53;;
14516;SDS011;7344;50.864;4.362;2024-02-16T08:54:02;12.83;;;6.80;;
14516;SDS011;7344;50.864;4.362;2024-02-16T08:56:29;14.30;;;7.07;;
14516;SDS011;7344;50.864;4.362;2024-02-16T08:58:55;15.03;;;6.83;;
14516;SDS011;7344;50.864;4.362;2024-02-16T09:01:34;13.17;;;7.33;;
14516;SDS011;7344;50.864;4.362;2024-02-16T09:04:01;10.93;;;6.80;;
14516;SDS011;7344;50.864;4.362;2024-02-16T09:06:27;15.00;;;7.00;;
14516;SDS011;7344;50.864;4.362;2024-02-16T09:08:54;10.70;;;6.67;;
14516;SDS011;7344;50.864;4.362;2024-02-16T09:11:20;12.03;;;6.77;;
14516;SDS011;7344;50.864;4.362;2024-02-16T09:13:46;11.50;;;6.97;;
14516;SDS011;7344;50.864;4.362;2024-02-16T09:16:12;12.20;;;6.83;;
14516;SDS011;7344;50.864;4.362;2024-02-16T09:18:37;14.00;;;7.60;;
14516;SDS011;7344;50.864;4.362;2024-02-16T09:21:03;15.37;;;7.60;;
14516;SDS011;7344;50.864;4.362;2024-02-16T09:23:31;11.23;;;7.10;;
14516;SDS011;7344;50.864;4.362;2024-02-16T09:25:58;12.03;;;7.03;;
14516;SDS011;7344;50.864;4.362;2024-02-16T09:28:24;10.87;;;7.30;;
14516;SDS011;7344;50.864;4.362;2024-02-16T09:30:50;12.40;;;7.50;;
14516;SDS011;7344;50.864;4.362;2024-02-16T09:33:16;12.77;;;6.90;;
14516;SDS011;7344;50.864;4.362;2024-02-16T09:35:41;13.93;;;7.00;;
14516;SDS011;7344;50.864;4.362;2024-02-16T09:38:07;14.43;;;6.97;;
14516;SDS011;7344;50.864;4.362;2024-02-16T09:40:35;16.60;;;7.40;;
14516;SDS011;7344;50.864;4.362;2024-02-16T09:43:01;14.00;;;6.97;;
14516;SDS011;7344;50.864;4.362;2024-02-16T09:45:27;15.00;;;6.53;;
14516;SDS011;7344;50.864;4.362;2024-02-16T09:47:54;11.27;;;6.07;;
14516;SDS011;7344;50.864;4.362;2024-02-16T09:50:20;10.73;;;6.97;;
14516;SDS011;7344;50.864;4.362;2024-02-16T09:52:47;12.53;;;5.97;;
14516;SDS011;7344;50.864;4.362;2024-02-16T09:55:14;15.10;;;6.70;;
14516;SDS011;7344;50.864;4.362;2024-02-16T09:57:41;9.23;;;5.87;;
14516;SDS011;7344;50.864;4.362;2024-02-16T10:00:06;11.13;;;6.70;;
14516;SDS011;7344;50.864;4.362;2024-02-16T10:02:40;11.10;;;5.73;;
14516;SDS011;7344;50.864;4.362;2024-02-16T10:07:40;9.73;;;5.90;;
14516;SDS011;7344;50.864;4.362;2024-02-16T10:10:06;8.63;;;5.97;;
14516;SDS011;7344;50.864;4.362;2024-02-16T10:12:42;11.47;;;6.27;;
14516;SDS011;7344;50.864;4.362;2024-02-16T10:15:07;10.23;;;6.37;;
14516;SDS011;7344;50.864;4.362;2024-02-16T10:17:34;13.30;;;6.97;;
14516;SDS011;7344;50.864;4.362;2024-02-16T10:19:59;12.37;;;6.40;;
14516;SDS011;7344;50.864;4.362;2024-02-16T10:22:31;13.37;;;6.13;;
14516;SDS011;7344;50.864;4.362;2024-02-16T10:25:06;10.30;;;6.70;;
14516;SDS011;7344;50.864;4.362;2024-02-16T10:27:36;10.30;;;6.73;;
14516;SDS011;7344;50.864;4.362;2024-02-16T10:30:02;17.30;;;7.63;;
14516;SDS011;7344;50.864;4.362;2024-02-16T10:32:34;10.17;;;6.47;;
14516;SDS011;7344;50.864;4.362;2024-02-16T10:35:01;11.47;;;6.63;;
14516;SDS011;7344;50.864;4.362;2024-02-16T10:37:28;9.33;;;6.87;;
14516;SDS011;7344;50.864;4.362;2024-02-16T10:39:54;17.53;;;7.93;;
14516;SDS011;7344;50.864;4.362;2024-02-16T10:42:21;10.67;;;6.70;;
14516;SDS011;7344;50.864;4.362;2024-02-16T10:44:49;14.57;;;7.47;;
14516;SDS011;7344;50.864;4.362;2024-02-16T10:47:17;13.67;;;8.17;;
14516;SDS011;7344;50.864;4.362;2024-02-16T10:49:43;17.03;;;8.80;;
14516;SDS011;7344;50.864;4.362;2024-02-16T10:52:09;14.90;;;8.23;;
14516;SDS011;7344;50.864;4.362;2024-02-16T10:54:37;11.30;;;7.27;;
14516;SDS011;7344;50.864;4.362;2024-02-16T10:57:07;13.43;;;7.63;;
14516;SDS011;7344;50.864;4.362;2024-02-16T10:59:42;16.70;;;7.87;;
14516;SDS011;7344;50.864;4.362;2024-02-16T11:02:09;17.30;;;8.97;;
14516;SDS011;7344;50.864;4.362;2024-02-16T11:04:38;15.00;;;8.40;;
14516;SDS011;7344;50.864;4.362;2024-02-16T11:07:37;17.37;;;8.97;;
14516;SDS011;7344;50.864;4.362;2024-02-16T11:09:56;18.00;;;8.67;;
14516;SDS011;7344;50.864;4.362;2024-02-16T11:12:24;14.23;;;8.40;;
14516;SDS011;7344;50.864;4.362;2024-02-16T11:15:00;19.70;;;9.50;;
14516;SDS011;7344;50.864;4.362;2024-02-16T11:17:25;14.60;;;8.83;;
14516;SDS011;7344;50.864;4.362;2024-02-16T11:19:53;16.10;;;9.53;;
14516;SDS011;7344;50.864;4.362;2024-02-16T11:22:19;12.53;;;9.07;;
14516;SDS011;7344;50.864;4.362;2024-02-16T11:24:46;15.40;;;9.40;;
14516;SDS011;7344;50.864;4.362;2024-02-16T11:27:17;14.43;;;9.53;;
14516;SDS011;7344;50.864;4.362;2024-02-16T11:29:47;14.07;;;9.40;;
14516;SDS011;7344;50.864;4.362;2024-02-16T11:32:13;14.50;;;10.20;;
14516;SDS011;7344;50.864;4.362;2024-02-16T11:34:39;12.90;;;10.27;;
14516;SDS011;7344;50.864;4.362;2024-02-16T11:37:05;12.13;;;9.23;;
14516;SDS011;7344;50.864;4.362;2024-02-16T11:39:31;16.00;;;10.13;;
14516;SDS011;7344;50.864;4.362;2024-02-16T11:42:05;14.60;;;10.03;;
14516;SDS011;7344;50.864;4.362;2024-02-16T11:44:35;16.57;;;11.07;;
14516;SDS011;7344;50.864;4.362;2024-02-16T11:47:02;15.17;;;10.60;;
14516;SDS011;7344;50.864;4.362;2024-02-16T11:49:31;13.23;;;10.17;;
14516;SDS011;7344;50.864;4.362;2024-02-16T11:51:56;13.67;;;10.20;;
14516;SDS011;7344;50.864;4.362;2024-02-16T11:54:25;13.63;;;9.97;;
14516;SDS011;7344;50.864;4.362;2024-02-16T11:56:51;12.00;;;10.47;;
14516;SDS011;7344;50.864;4.362;2024-02-16T11:59:17;15.97;;;10.33;;
14516;SDS011;7344;50.864;4.362;2024-02-16T12:04:23;10.07;;;9.00;;
14516;SDS011;7344;50.864;4.362;2024-02-16T12:06:54;14.73;;;10.20;;
14516;SDS011;7344;50.864;4.362;2024-02-16T12:09:21;14.00;;;9.53;;
14516;SDS011;7344;50.864;4.362;2024-02-16T12:11:50;9.37;;;8.37;;
14516;SDS011;7344;50.864;4.362;2024-02-16T12:14:18;8.90;;;7.73;;
14516;SDS011;7344;50.864;4.362;2024-02-16T12:16:50;9.80;;;8.17;;
14516;SDS011;7344;50.864;4.362;2024-02-16T12:19:20;10.80;;;8.27;;
14516;SDS011;7344;50.864;4.362;2024-02-16T12:21:50;10.20;;;8.00;;
14516;SDS011;7344;50.864;4.362;2024-02-16T12:24:22;8.03;;;7.27;;
14516;SDS011;7344;50.864;4.362;2024-02-16T12:26:53;7.70;;;6.90;;
14516;SDS011;7344;50.864;4.362;2024-02-16T12:29:19;8.03;;;7.23;;
14516;SDS011;7344;50.864;4.362;2024-02-16T12:31:46;7.83;;;7.03;;
14516;SDS011;7344;50.864;4.362;2024-02-16T12:34:14;8.77;;;7.40;;
14516;SDS011;7344;50.864;4.362;2024-02-16T12:36:40;8.57;;;7.13;;
14516;SDS011;7344;50.864;4.362;2024-02-16T12:39:06;7.33;;;6.70;;
14516;SDS011;7344;50.864;4.362;2024-02-16T12:41:33;8.77;;;7.87;;
14516;SDS011;7344;50.864;4.362;2024-02-16T12:44:00;8.07;;;7.33;;
14516;SDS011;7344;50.864;4.362;2024-02-16T12:46:26;7.80;;;7.10;;
14516;SDS011;7344;50.864;4.362;2024-02-16T12:48:53;7.87;;;7.17;;
14516;SDS011;7344;50.864;4.362;2024-02-16T12:51:18;9.03;;;7.93;;
14516;SDS011;7344;50.864;4.362;2024-02-16T12:53:44;8.53;;;7.83;;
14516;SDS011;7344;50.864;4.362;2024-02-16T12:56:10;8.10;;;7.40;;
14516;SDS011;7344;50.864;4.362;2024-02-16T12:58:36;8.67;;;7.87;;
14516;SDS011;7344;50.864;4.362;2024-02-16T13:01:05;8.57;;;7.70;;
14516;SDS011;7344;50.864;4.362;2024-02-16T13:03:33;8.97;;;8.17;;
14516;SDS011;7344;50.864;4.362;2024-02-16T13:06:02;9.60;;;8.50;;
14516;SDS011;7344;50.864;4.362;2024-02-16T13:08:29;9.30;;;8.40;;
14516;SDS011;7344;50.864;4.362;2024-02-16T13:10:55;9.17;;;8.37;;
14516;SDS011;7344;50.864;4.362;2024-02-16T13:13:21;10.10;;;9.10;;
14516;SDS011;7344;50.864;4.362;2024-02-16T13:15:47;9.13;;;8.33;;
14516;SDS011;7344;50.864;4.362;2024-02-16T13:18:13;10.33;;;8.57;;
14516;SDS011;7344;50.864;4.362;2024-02-16T13:20:39;10.10;;;9.10;;
14516;SDS011;7344;50.864;4.362;2024-02-16T13:23:05;8.97;;;8.27;;
14516;SDS011;7344;50.864;4.362;2024-02-16T13:25:30;10.13;;;9.13;;
14516;SDS011;7344;50.864;4.362;2024-02-16T13:27:56;8.83;;;8.03;;
14516;SDS011;7344;50.864;4.362;2024-02-16T13:30:22;9.43;;;8.50;;
14516;SDS011;7344;50.864;4.362;2024-02-16T13:32:47;9.23;;;7.87;;
14516;SDS011;7344;50.864;4.362;2024-02-16T13:35:13;9.20;;;8.30;;
14516;SDS011;7344;50.864;4.362;2024-02-16T13:37:39;8.30;;;7.53;;
14516;SDS011;7344;50.864;4.362;2024-02-16T13:40:06;7.63;;;6.80;;
14516;SDS011;7344;50.864;4.362;2024-02-16T13:42:35;8.53;;;7.40;;
14516;SDS011;7344;50.864;4.362;2024-02-16T13:45:01;8.50;;;7.80;;
14516;SDS011;7344;50.864;4.362;2024-02-16T13:47:27;8.57;;;7.77;;
14516;SDS011;7344;50.864;4.362;2024-02-16T13:49:53;10.07;;;9.07;;
14516;SDS011;7344;50.864;4.362;2024-02-16T13:52:18;9.27;;;8.33;;
14516;SDS011;7344;50.864;4.362;2024-02-16T13:54:44;9.33;;;8.43;;
14516;SDS011;7344;50.864;4.362;2024-02-16T13:57:10;8.20;;;7.60;;
14516;SDS011;7344;50.864;4.362;2024-02-16T13:59:35;8.97;;;8.17;;
14516;SDS011;7344;50.864;4.362;2024-02-16T14:02:01;7.53;;;6.83;;
14516;SDS011;7344;50.864;4.362;2024-02-16T14:04:27;5.97;;;5.40;;
14516;SDS011;7344;50.864;4.362;2024-02-16T14:06:53;5.17;;;4.77;;
14516;SDS011;7344;50.864;4.362;2024-02-16T14:09:19;5.07;;;4.67;;
14516;SDS011;7344;50.864;4.362;2024-02-16T14:11:45;5.30;;;4.90;;
14516;SDS011;7344;50.864;4.362;2024-02-16T14:14:10;5.27;;;4.77;;
14516;SDS011;7344;50.864;4.362;2024-02-16T14:16:36;4.40;;;4.10;;
14516;SDS011;7344;50.864;4.362;2024-02-16T14:19:02;4.97;;;3.70;;
14516;SDS011;7344;50.864;4.362;2024-02-16T14:21:28;4.33;;;3.90;;
14516;SDS011;7344;50.864;4.362;2024-02-16T14:23:53;3.87;;;3.67;;
14516;SDS011;7344;50.864;4.362;2024-02-16T14:26:19;4.07;;;3.80;;
14516;SDS011;7344;50.864;4.362;2024-02-16T14:28:45;3.80;;;3.53;;
14516;SDS011;7344;50.864;4.362;2024-02-16T14:31:11;3.50;;;3.30;;
14516;SDS011;7344;50.864;4.362;2024-02-16T14:33:38;3.63;;;3.37;;
14516;SDS011;7344;50.864;4.362;2024-02-16T14:36:04;3.80;;;3.40;;
14516;SDS011;7344;50.864;4.362;2024-02-16T14:38:30;3.60;;;3.30;;
14516;SDS011;7344;50.864;4.362;2024-02-16T14:40:56;3.20;;;3.00;;
14516;SDS011;7344;50.864;4.362;2024-02-16T14:43:22;3.60;;;3.30;;
14516;SDS011;7344;50.864;4.362;2024-02-16T14:45:48;3.53;;;3.23;;
14516;SDS011;7344;50.864;4.362;2024-02-16T14:48:13;3.60;;;3.30;;
14516;SDS011;7344;50.864;4.362;2024-02-16T14:50:39;4.27;;;3.40;;
14516;SDS011;7344;50.864;4.362;2024-02-16T14:53:05;3.33;;;3.13;;
14516;SDS011;7344;50.864;4.362;2024-02-16T14:55:31;4.50;;;3.80;;